createdAt,value
2022-11-28T00:01:33.250Z,100011.25
2022-11-28T00:04:00.642Z,100002.63
2022-11-28T00:06:28.142Z,100007.31
2022-11-28T00:08:57.285Z,100015.03
2022-11-28T00:11:24.990Z,100007.81
2022-11-28T00:13:52.122Z,100008.19
2022-11-28T00:16:25.231Z,100012.28
2022-11-28T00:18:54.130Z,100002.87
2022-11-28T00:21:21.243Z,100000.94
2022-11-28T00:23:48.596Z,100004.56
2022-11-28T00:26:15.896Z,99997.66
2022-11-28T00:28:43.079Z,99996.09
2022-11-28T00:31:13.908Z,99996.28
2022-11-28T00:33:41.995Z,100007.47
2022-11-28T00:36:09.348Z,99993.59
2022-11-28T00:38:36.462Z,99998.78
2022-11-28T00:41:05.496Z,99997.00
2022-11-28T00:43:32.606Z,99995.97
2022-11-28T00:45:59.852Z,99996.66
2022-11-28T00:48:27.235Z,100018.38
2022-11-28T00:50:54.479Z,99999.53
2022-11-28T00:53:21.586Z,100006.19
2022-11-28T00:55:48.921Z,99999.69
2022-11-28T00:58:17.035Z,99999.19
2022-11-28T01:00:44.195Z,100013.97
2022-11-28T01:03:11.654Z,100009.97
2022-11-28T01:05:42.166Z,100015.78
2022-11-28T01:08:10.167Z,100006.63
2022-11-28T01:10:42.171Z,100003.56
2022-11-28T01:13:09.482Z,100000.75
2022-11-28T01:15:37.023Z,99998.44
2022-11-28T01:18:04.455Z,99991.53
2022-11-28T01:20:31.563Z,99985.00
2022-11-28T01:22:58.657Z,99998.16
2022-11-28T01:25:26.239Z,99990.22
2022-11-28T01:27:53.335Z,99996.25
2022-11-28T01:30:20.484Z,99998.50
2022-11-28T01:32:47.835Z,99998.22
2022-11-28T01:35:14.976Z,99995.38
2022-11-28T01:37:42.118Z,99997.19
2022-11-28T01:40:10.708Z,99995.53
2022-11-28T01:42:37.851Z,99990.12
2022-11-28T01:45:12.204Z,99978.84
2022-11-28T01:47:39.577Z,99974.94
2022-11-28T01:50:08.130Z,99974.81
2022-11-28T01:52:36.383Z,99961.75
2022-11-28T01:55:04.001Z,99969.69
2022-11-28T01:57:31.169Z,99967.19
2022-11-28T02:00:07.832Z,99968.44
2022-11-28T02:03:00.102Z,99957.69
2022-11-28T02:05:27.460Z,99949.81
2022-11-28T02:07:54.700Z,99960.94
2022-11-28T02:10:24.060Z,99956.37
2022-11-28T02:12:54.590Z,99955.63
2022-11-28T02:15:43.692Z,99950.06
2022-11-28T02:18:11.169Z,99944.03
2022-11-28T02:20:41.010Z,99948.06
2022-11-28T02:23:13.873Z,99948.59
2022-11-28T02:25:56.605Z,99943.25
2022-11-28T02:28:41.766Z,99941.41
2022-11-28T02:31:18.441Z,99937.22
2022-11-28T02:33:46.768Z,99945.88
2022-11-28T02:36:23.286Z,99938.19
2022-11-28T02:39:08.974Z,99937.50
2022-11-28T02:41:42.199Z,99939.03
2022-11-28T02:44:11.598Z,99937.38
2022-11-28T02:46:51.307Z,99939.06
2022-11-28T02:49:29.806Z,99918.94
2022-11-28T02:52:01.166Z,99923.53
2022-11-28T02:54:30.464Z,99919.66
2022-11-28T02:56:57.889Z,99918.50
2022-11-28T02:59:33.947Z,99918.66
2022-11-28T03:02:01.404Z,99919.91
2022-11-28T03:04:28.502Z,99917.25
2022-11-28T03:07:01.959Z,99928.97
2022-11-28T03:09:44.052Z,99921.16
2022-11-28T03:12:14.096Z,99913.81
2022-11-28T03:14:48.998Z,99909.78
2022-11-28T03:17:16.045Z,99909.66
2022-11-28T03:19:44.561Z,99908.84
2022-11-28T03:22:11.628Z,99906.44
2022-11-28T03:24:43.887Z,99903.91
2022-11-28T03:27:11.407Z,99912.72
2022-11-28T03:29:46.749Z,99897.53
2022-11-28T03:32:16.521Z,99889.66
2022-11-28T03:34:45.421Z,99890.94
2022-11-28T03:37:17.329Z,99886.69
2022-11-28T03:39:46.852Z,99877.22
2022-11-28T03:42:15.299Z,99878.16
2022-11-28T03:44:50.150Z,99878.81
2022-11-28T03:47:17.521Z,99870.28
2022-11-28T03:49:48.729Z,99866.22
2022-11-28T03:52:22.095Z,99867.47
2022-11-28T03:55:04.840Z,99858.63
2022-11-28T03:57:37.142Z,99860.53
2022-11-28T04:00:08.167Z,99861.31
2022-11-28T04:02:41.121Z,99856.25
2022-11-28T04:05:08.558Z,99854.81
2022-11-28T04:07:47.648Z,99858.13
2022-11-28T04:10:19.263Z,99845.81
2022-11-28T04:12:48.504Z,99849.37
2022-11-28T04:15:36.079Z,99845.12
2022-11-28T04:18:16.203Z,99844.62
2022-11-28T04:20:48.984Z,99850.47
2022-11-28T04:23:17.218Z,99841.09
2022-11-28T04:25:46.153Z,99842.81
2022-11-28T04:28:14.169Z,99834.78
2022-11-28T04:30:41.361Z,99845.47
2022-11-28T04:33:09.756Z,99835.59
2022-11-28T04:35:41.538Z,99836.47
2022-11-28T04:38:09.427Z,99839.28
2022-11-28T04:40:38.760Z,99836.28
2022-11-28T04:43:08.349Z,99837.22
2022-11-28T04:45:36.595Z,99831.53
2022-11-28T04:48:03.883Z,99846.59
2022-11-28T04:50:32.638Z,99835.75
2022-11-28T04:53:01.038Z,99825.19
2022-11-28T04:55:47.450Z,99832.09
2022-11-28T04:58:16.415Z,99826.63
2022-11-28T05:00:43.629Z,99831.19
2022-11-28T05:03:10.769Z,99830.97
2022-11-28T05:05:42.453Z,99832.28
2022-11-28T05:08:09.689Z,99837.16
2022-11-28T05:10:36.892Z,99841.94
2022-11-28T05:13:04.244Z,99832.13
2022-11-28T05:15:31.364Z,99834.59
2022-11-28T05:17:58.475Z,99836.13
2022-11-28T05:20:26.020Z,99831.03
2022-11-28T05:22:53.130Z,99829.56
2022-11-28T05:25:20.869Z,99841.53
2022-11-28T05:27:48.248Z,99838.03
2022-11-28T05:30:15.353Z,99839.16
2022-11-28T05:32:42.484Z,99846.25
2022-11-28T05:35:10.146Z,99849.97
2022-11-28T05:37:37.507Z,99852.34
2022-11-28T05:40:04.911Z,99850.63
2022-11-28T05:42:32.855Z,99852.22
2022-11-28T05:45:00.053Z,99845.94
2022-11-28T05:47:27.193Z,99848.63
2022-11-28T05:49:54.664Z,99853.28
2022-11-28T05:52:21.778Z,99861.38
2022-11-28T05:54:48.888Z,99853.41
2022-11-28T05:57:16.276Z,99858.25
2022-11-28T05:59:43.516Z,99859.50
2022-11-28T06:02:10.812Z,99861.88
2022-11-28T06:04:38.301Z,99855.09
2022-11-28T06:07:05.436Z,99862.72
2022-11-28T06:09:32.554Z,99856.28
2022-11-28T06:11:59.922Z,99861.88
2022-11-28T06:14:27.022Z,99859.88
2022-11-28T06:16:54.170Z,99868.53
2022-11-28T06:19:21.569Z,99852.28
2022-11-28T06:21:49.788Z,99867.78
2022-11-28T06:24:16.890Z,99862.41
2022-11-28T06:26:44.258Z,99860.44
2022-11-28T06:29:11.358Z,99862.97
2022-11-28T06:31:38.577Z,99862.84
2022-11-28T06:34:05.988Z,99855.91
2022-11-28T06:36:33.125Z,99853.28
2022-11-28T06:39:00.223Z,99867.19
2022-11-28T06:41:27.574Z,99869.44
2022-11-28T06:43:55.427Z,99864.28
2022-11-28T06:46:22.873Z,99855.09
2022-11-28T06:48:50.753Z,99865.66
2022-11-28T06:51:17.887Z,99857.75
2022-11-28T06:53:46.290Z,99867.88
2022-11-28T06:56:14.673Z,99868.78
2022-11-28T06:58:42.138Z,99872.75
2022-11-28T07:01:11.076Z,99871.87
2022-11-28T07:03:39.430Z,99867.75
2022-11-28T07:06:06.858Z,99880.66
2022-11-28T07:08:34.244Z,99863.72
2022-11-28T07:11:27.828Z,99872.00
2022-11-28T07:13:55.072Z,99867.41
2022-11-28T07:16:27.596Z,99868.78
2022-11-28T07:18:55.466Z,99871.75
2022-11-28T07:21:22.576Z,99867.44
2022-11-28T07:23:50.006Z,99873.06
2022-11-28T07:26:17.985Z,99873.94
2022-11-28T07:28:45.246Z,99884.28
2022-11-28T07:31:17.433Z,99884.56
2022-11-28T07:33:45.327Z,99879.72
2022-11-28T07:36:22.967Z,99874.47
2022-11-28T07:38:50.752Z,99878.56
2022-11-28T07:41:21.298Z,99876.66
2022-11-28T07:43:54.790Z,99870.44
2022-11-28T07:46:22.672Z,99863.66
2022-11-28T07:48:49.949Z,99858.59
2022-11-28T07:51:21.179Z,99856.75
2022-11-28T07:53:48.594Z,99848.41
2022-11-28T07:56:17.237Z,99846.78
2022-11-28T07:58:45.024Z,99847.09
2022-11-28T08:01:13.426Z,99847.25
2022-11-28T08:03:40.962Z,99849.28
2022-11-28T08:06:08.283Z,99855.75
2022-11-28T08:08:35.402Z,99852.19
2022-11-28T08:11:03.677Z,99857.75
2022-11-28T08:13:30.776Z,99861.00
2022-11-28T08:15:57.882Z,99859.72
2022-11-28T08:18:25.348Z,99864.66
2022-11-28T08:20:52.464Z,99855.16
2022-11-28T08:23:19.581Z,99867.94
2022-11-28T08:25:46.945Z,99867.09
2022-11-28T08:28:14.157Z,99867.75
2022-11-28T08:33:26.423Z,99871.00
2022-11-28T08:35:53.596Z,99867.00
2022-11-28T08:38:20.688Z,99864.00
2022-11-28T08:40:48.065Z,99873.41
2022-11-28T08:43:15.176Z,99873.44
2022-11-28T08:45:42.300Z,99872.53
2022-11-28T08:48:09.803Z,99867.69
2022-11-28T08:50:36.904Z,99864.75
2022-11-28T08:53:07.778Z,99867.56
2022-11-28T08:55:40.542Z,99870.91
2022-11-28T08:58:08.949Z,99866.44
2022-11-28T09:00:36.353Z,99866.91
2022-11-28T09:03:03.719Z,99865.56
2022-11-28T09:05:30.907Z,99862.59
2022-11-28T09:07:58.333Z,99862.34
2022-11-28T09:10:25.481Z,99858.09
2022-11-28T09:12:52.599Z,99859.62
2022-11-28T09:15:19.967Z,99855.50
2022-11-28T09:17:47.071Z,99859.28
2022-11-28T09:20:14.175Z,99856.44
2022-11-28T09:22:42.612Z,99850.31
2022-11-28T09:25:09.769Z,99847.72
2022-11-28T09:27:36.869Z,99851.44
2022-11-28T09:30:04.916Z,99852.47
2022-11-28T09:32:32.501Z,99850.50
2022-11-28T09:34:59.633Z,99847.81
2022-11-28T09:37:30.410Z,99840.09
2022-11-28T09:40:12.578Z,99838.81
2022-11-28T09:42:43.669Z,99837.00
2022-11-28T09:45:21.346Z,99842.00
2022-11-28T09:47:52.093Z,99832.25
2022-11-28T09:50:30.003Z,99830.06
2022-11-28T09:52:57.351Z,99831.00
2022-11-28T09:55:33.618Z,99823.31
2022-11-28T09:58:01.723Z,99815.69
2022-11-28T10:00:31.781Z,99811.91
2022-11-28T10:03:11.467Z,99808.69
2022-11-28T10:05:42.693Z,99816.50
2022-11-28T10:08:10.009Z,99799.09
2022-11-28T10:11:15.720Z,99806.84
2022-11-28T10:14:07.645Z,99807.81
2022-11-28T10:16:47.198Z,99807.19
2022-11-28T10:19:31.627Z,99798.62
2022-11-28T10:22:02.935Z,99804.19
2022-11-28T10:24:37.736Z,99806.81
2022-11-28T10:27:05.513Z,99804.59
2022-11-28T10:29:33.624Z,99801.66
2022-11-28T10:32:01.879Z,99792.34
2022-11-28T10:34:47.952Z,99800.53
2022-11-28T10:37:29.003Z,99796.19
2022-11-28T10:39:56.495Z,99786.06
2022-11-28T10:42:35.645Z,99784.56
2022-11-28T10:45:05.551Z,99787.63
2022-11-28T10:47:48.223Z,99776.12
2022-11-28T10:50:15.354Z,99777.91
2022-11-28T10:52:53.583Z,99771.81
2022-11-28T10:55:29.280Z,99773.00
2022-11-28T10:58:02.506Z,99768.06
2022-11-28T11:00:29.606Z,99762.03
2022-11-28T11:02:57.521Z,99755.66
2022-11-28T11:05:26.919Z,99754.84
2022-11-28T11:07:54.008Z,99752.97
2022-11-28T11:10:24.224Z,99756.41
2022-11-28T11:12:52.501Z,99748.78
2022-11-28T11:15:22.375Z,99750.75
2022-11-28T11:17:50.830Z,99756.25
2022-11-28T11:20:20.659Z,99759.00
2022-11-28T11:22:57.926Z,99756.59
2022-11-28T11:25:25.926Z,99750.00
2022-11-28T11:27:57.322Z,99751.09
2022-11-28T11:30:26.036Z,99742.06
2022-11-28T11:32:55.217Z,99758.25
2022-11-28T11:35:26.621Z,99747.03
2022-11-28T11:37:53.810Z,99749.13
2022-11-28T11:40:28.681Z,99753.00
2022-11-28T11:42:57.302Z,99737.25
2022-11-28T11:45:32.190Z,99748.50
2022-11-28T11:47:59.293Z,99742.47
2022-11-28T11:50:28.195Z,99746.75
2022-11-28T11:53:01.249Z,99749.87
2022-11-28T11:55:29.073Z,99741.22
2022-11-28T11:57:56.186Z,99739.47
2022-11-28T12:00:24.293Z,99731.03
2022-11-28T12:03:05.060Z,99728.63
2022-11-28T12:06:12.740Z,99726.09
2022-11-28T12:08:35.438Z,99725.81
2022-11-28T12:11:09.380Z,99723.38
2022-11-28T12:13:36.792Z,99718.25
2022-11-28T12:16:09.796Z,99711.19
2022-11-28T12:18:49.081Z,99713.25
2022-11-28T12:21:25.186Z,99715.22
2022-11-28T12:24:12.508Z,99704.41
2022-11-28T12:26:59.031Z,99705.53
2022-11-28T12:29:48.742Z,99710.91
2022-11-28T12:32:18.887Z,99707.59
2022-11-28T12:35:02.600Z,99704.06
2022-11-28T12:38:09.837Z,99700.91
2022-11-28T12:40:32.964Z,99705.13
2022-11-28T12:43:15.323Z,99692.31
2022-11-28T12:45:45.912Z,99699.19
2022-11-28T12:48:29.538Z,99694.06
2022-11-28T12:51:07.827Z,99700.69
2022-11-28T12:53:41.635Z,99690.50
2022-11-28T12:56:15.186Z,99695.72
2022-11-28T12:58:45.331Z,99690.53
2022-11-28T13:01:31.534Z,99691.88
2022-11-28T13:04:04.801Z,99684.62
2022-11-28T13:06:38.449Z,99684.53
2022-11-28T13:09:08.741Z,99690.59
2022-11-28T13:11:59.314Z,99684.03
2022-11-28T13:14:45.745Z,99682.00
2022-11-28T13:17:17.401Z,99677.47
2022-11-28T13:19:50.200Z,99680.41
2022-11-28T13:22:23.558Z,99674.44
2022-11-28T13:25:03.257Z,99687.69
2022-11-28T13:27:36.247Z,99679.22
2022-11-28T13:30:03.321Z,99676.69
2022-11-28T13:32:35.333Z,99685.81
2022-11-28T13:35:02.583Z,99674.72
2022-11-28T13:40:55.972Z,99672.28
2022-11-28T13:43:38.876Z,99679.75
2022-11-28T13:49:14.950Z,99675.19
2022-11-28T13:51:43.023Z,99676.72
2022-11-28T13:54:22.269Z,99660.69
2022-11-28T13:57:05.916Z,99658.50
2022-11-28T13:59:33.041Z,99671.19
2022-11-28T14:02:01.867Z,99671.16
2022-11-28T14:04:29.785Z,99654.06
2022-11-28T14:07:06.851Z,99670.56
2022-11-28T14:09:36.332Z,99669.94
2022-11-28T14:12:07.777Z,99667.56
2022-11-28T14:14:44.762Z,99662.19
2022-11-28T14:17:27.372Z,99658.84
2022-11-28T14:19:55.381Z,99659.75
2022-11-28T14:22:25.312Z,99664.28
2022-11-28T14:24:52.371Z,99658.28
2022-11-28T14:27:26.692Z,99659.22
2022-11-28T14:29:54.647Z,99662.38
2022-11-28T14:32:30.575Z,99662.09
2022-11-28T14:34:59.120Z,99658.53
2022-11-28T14:37:35.201Z,99663.72
2022-11-28T14:40:03.841Z,99657.97
2022-11-28T14:45:32.378Z,99657.84
2022-11-28T14:48:06.366Z,99661.09
2022-11-28T14:50:36.446Z,99662.50
2022-11-28T14:53:22.782Z,99649.41
2022-11-28T14:55:50.143Z,99647.09
2022-11-28T14:58:17.577Z,99657.59
2022-11-28T15:00:44.628Z,99657.94
2022-11-28T15:03:12.680Z,99658.09
2022-11-28T15:05:52.755Z,99654.97
2022-11-28T15:08:22.918Z,99661.53
2022-11-28T15:11:11.657Z,99655.56
2022-11-28T15:13:41.817Z,99662.78
2022-11-28T15:16:10.932Z,99658.53
2022-11-28T15:18:38.793Z,99653.53
2022-11-28T15:21:07.047Z,99659.47
2022-11-28T15:23:35.833Z,99659.78
2022-11-28T15:26:03.472Z,99665.84
2022-11-28T15:28:32.480Z,99660.66
2022-11-28T15:31:00.738Z,99659.69
2022-11-28T15:33:28.537Z,99658.00
2022-11-28T15:35:56.236Z,99660.88
2022-11-28T15:38:23.926Z,99669.06
2022-11-28T15:40:51.585Z,99667.72
2022-11-28T15:43:18.989Z,99660.00
2022-11-28T15:45:49.704Z,99670.00
2022-11-28T15:48:27.254Z,99673.87
2022-11-28T15:50:55.066Z,99670.00
2022-11-28T15:53:22.773Z,99671.84
2022-11-28T15:56:06.793Z,99674.94
2022-11-28T15:58:34.348Z,99670.81
2022-11-28T16:01:15.287Z,99672.13
2022-11-28T16:03:45.855Z,99682.31
2022-11-28T16:06:13.028Z,99683.16
2022-11-28T16:08:45.644Z,99687.94
2022-11-28T16:11:15.085Z,99682.03
2022-11-28T16:13:43.589Z,99680.78
2022-11-28T16:16:11.885Z,99687.59
2022-11-28T16:18:42.641Z,99684.38
2022-11-28T16:21:11.759Z,99691.75
2022-11-28T16:23:38.871Z,99694.09
2022-11-28T16:26:06.313Z,99688.50
2022-11-28T16:28:33.589Z,99686.19
2022-11-28T16:31:01.129Z,99690.00
2022-11-28T16:33:38.678Z,99678.88
2022-11-28T16:36:22.027Z,99681.72
2022-11-28T16:38:50.202Z,99677.38
2022-11-28T16:41:18.468Z,99682.19
2022-11-28T16:44:02.990Z,99679.78
2022-11-28T16:46:38.497Z,99674.66
2022-11-28T16:49:09.163Z,99681.72
2022-11-28T16:51:39.859Z,99675.69
2022-11-28T16:54:22.516Z,99677.88
2022-11-28T16:56:50.473Z,99687.63
2022-11-28T16:59:18.525Z,99685.69
2022-11-28T17:01:46.778Z,99686.94
2022-11-28T17:04:21.931Z,99681.56
2022-11-28T17:06:51.272Z,99687.44
2022-11-28T17:09:19.307Z,99682.91
2022-11-28T17:11:47.719Z,99679.47
2022-11-28T17:14:15.247Z,99682.50
2022-11-28T17:16:43.451Z,99682.72
2022-11-28T17:19:11.181Z,99687.72
2022-11-28T17:21:38.884Z,99681.09
2022-11-28T17:24:09.268Z,99691.78
2022-11-28T17:26:37.028Z,99681.63
2022-11-28T17:29:04.514Z,99681.41
2022-11-28T17:31:32.161Z,99689.63
2022-11-28T17:34:02.136Z,99681.09
2022-11-28T17:36:29.944Z,99690.97
2022-11-28T17:39:04.812Z,99694.53
2022-11-28T17:41:33.380Z,99692.44
2022-11-28T17:44:01.287Z,99692.50
2022-11-28T17:46:28.593Z,99691.06
2022-11-28T17:48:57.979Z,99693.16
2022-11-28T17:51:26.691Z,99680.69
2022-11-28T17:53:55.534Z,99691.91
2022-11-28T17:56:23.378Z,99695.09
2022-11-28T17:58:51.724Z,99695.72
2022-11-28T18:01:21.158Z,99685.06
2022-11-28T18:03:49.574Z,99692.22
2022-11-28T18:06:17.459Z,99693.28
2022-11-28T18:08:45.636Z,99687.22
2022-11-28T18:11:14.451Z,99698.63
2022-11-28T18:13:42.784Z,99694.22
2022-11-28T18:16:12.594Z,99706.31
2022-11-28T18:18:40.486Z,99701.06
2022-11-28T18:21:08.979Z,99695.38
2022-11-28T18:23:40.728Z,99694.06
2022-11-28T18:26:09.129Z,99698.41
2022-11-28T18:28:36.991Z,99694.72
2022-11-28T18:31:09.404Z,99691.72
2022-11-28T18:33:37.740Z,99686.84
2022-11-28T18:36:13.553Z,99693.69
2022-11-28T18:38:41.916Z,99690.50
2022-11-28T18:41:12.649Z,99698.00
2022-11-28T18:43:40.474Z,99691.47
2022-11-28T18:46:10.546Z,99699.53
2022-11-28T18:48:39.608Z,99707.53
2022-11-28T18:51:14.080Z,99701.09
2022-11-28T18:53:42.648Z,99692.69
2022-11-28T18:56:10.538Z,99687.78
2022-11-28T18:58:39.604Z,99691.56
2022-11-28T19:01:12.650Z,99683.84
2022-11-28T19:03:41.600Z,99694.81
2022-11-28T19:06:13.974Z,99699.53
2022-11-28T19:08:41.828Z,99695.22
2022-11-28T19:11:14.875Z,99702.16
2022-11-28T19:13:43.154Z,99696.66
2022-11-28T19:16:18.427Z,99686.34
2022-11-28T19:18:46.934Z,99688.22
2022-11-28T19:21:16.320Z,99687.81
2022-11-28T19:23:44.905Z,99688.31
2022-11-28T19:26:13.366Z,99693.19
2022-11-28T19:28:41.886Z,99686.56
2022-11-28T19:31:12.639Z,99699.56
2022-11-28T19:33:41.282Z,99700.72
2022-11-28T19:36:10.462Z,99696.66
2022-11-28T19:38:38.690Z,99701.47
2022-11-28T19:41:07.510Z,99703.81
2022-11-28T19:43:35.646Z,99704.53
2022-11-28T19:46:03.519Z,99706.19
2022-11-28T19:48:33.966Z,99703.66
2022-11-28T19:51:05.921Z,99705.66
2022-11-28T19:53:34.563Z,99709.34
2022-11-28T19:56:04.477Z,99705.72
2022-11-28T19:58:32.672Z,99702.59
2022-11-28T20:01:07.032Z,99705.22
2022-11-28T20:03:35.749Z,99702.88
2022-11-28T20:06:10.502Z,99706.47
2022-11-28T20:08:38.806Z,99709.56
2022-11-28T20:11:07.473Z,99708.84
2022-11-28T20:13:35.357Z,99707.12
2022-11-28T20:16:08.496Z,99707.16
2022-11-28T20:18:40.617Z,99699.16
2022-11-28T20:21:09.921Z,99703.00
2022-11-28T20:23:44.608Z,99706.13
2022-11-28T20:26:13.500Z,99703.56
2022-11-28T20:28:43.069Z,99706.00
2022-11-28T20:31:18.727Z,99708.31
2022-11-28T20:33:48.900Z,99706.75
2022-11-28T20:36:17.692Z,99707.72
2022-11-28T20:38:45.672Z,99701.88
2022-11-28T20:41:14.253Z,99709.88
2022-11-28T20:43:42.014Z,99701.72
2022-11-28T20:46:15.502Z,99705.50
2022-11-28T20:48:43.424Z,99706.53
2022-11-28T20:51:15.329Z,99705.28
2022-11-28T20:53:43.502Z,99694.78
2022-11-28T20:56:16.974Z,99711.13
2022-11-28T20:58:46.009Z,99703.37
2022-11-28T21:01:17.584Z,99699.75
2022-11-28T21:03:45.730Z,99702.69
2022-11-28T21:06:13.580Z,99709.25
2022-11-28T21:08:44.653Z,99704.25
2022-11-28T21:11:30.633Z,99699.88
2022-11-28T21:14:01.664Z,99712.25
2022-11-28T21:16:29.751Z,99708.69
2022-11-28T21:18:57.261Z,99707.09
2022-11-28T21:21:26.886Z,99712.53
2022-11-28T21:24:01.961Z,99710.47
2022-11-28T21:26:30.540Z,99703.13
2022-11-28T21:29:01.751Z,99712.00
2022-11-28T21:31:30.538Z,99716.03
2022-11-28T21:33:58.367Z,99713.06
2022-11-28T21:36:26.038Z,99720.16
2022-11-28T21:38:53.668Z,99711.56
2022-11-28T21:41:21.103Z,99710.16
2022-11-28T21:43:48.385Z,99708.69
2022-11-28T21:46:15.688Z,99705.47
2022-11-28T21:48:43.770Z,99709.50
2022-11-28T21:51:17.775Z,99713.44
2022-11-28T21:53:45.169Z,99709.31
2022-11-28T21:56:12.402Z,99712.53
2022-11-28T21:58:39.623Z,99708.41
2022-11-28T22:01:08.224Z,99701.22
2022-11-28T22:03:37.176Z,99711.75
2022-11-28T22:06:07.374Z,99705.34
2022-11-28T22:08:35.099Z,99697.38
2022-11-28T22:11:04.759Z,99706.28
2022-11-28T22:13:32.938Z,99703.69
2022-11-28T22:16:00.142Z,99705.00
2022-11-28T22:18:31.025Z,99709.53
2022-11-28T22:21:02.236Z,99704.22
2022-11-28T22:23:29.693Z,99697.41
2022-11-28T22:25:56.869Z,99709.44
2022-11-28T22:28:23.995Z,99712.69
2022-11-28T22:30:51.360Z,99711.22
2022-11-28T22:33:18.580Z,99705.72
2022-11-28T22:35:45.716Z,99702.88
2022-11-28T22:38:13.499Z,99703.97
2022-11-28T22:40:40.934Z,99703.78
2022-11-28T22:43:08.229Z,99701.50
2022-11-28T22:45:35.699Z,99703.50
2022-11-28T22:48:02.922Z,99707.62
2022-11-28T22:50:30.405Z,99692.28
2022-11-28T22:52:58.003Z,99702.56
2022-11-28T22:55:25.106Z,99702.00
2022-11-28T22:57:52.869Z,99705.72
2022-11-28T23:00:20.464Z,99711.44
2022-11-28T23:02:47.678Z,99707.41
2022-11-28T23:05:15.005Z,99702.53
2022-11-28T23:07:42.823Z,99709.25
2022-11-28T23:10:10.005Z,99707.78
2022-11-28T23:12:37.335Z,99705.13
2022-11-28T23:15:05.571Z,99703.25
2022-11-28T23:17:32.825Z,99691.81
2022-11-28T23:19:59.936Z,99705.28
2022-11-28T23:22:27.330Z,99697.66
2022-11-28T23:24:54.733Z,99706.84
2022-11-28T23:27:21.834Z,99699.81
2022-11-28T23:29:49.255Z,99708.03
2022-11-28T23:32:16.377Z,99706.34
2022-11-28T23:34:43.769Z,99705.13
2022-11-28T23:37:11.621Z,99702.22
2022-11-28T23:39:38.726Z,99705.06
2022-11-28T23:42:06.315Z,99706.75
2022-11-28T23:44:33.720Z,99706.00
2022-11-28T23:47:00.860Z,99693.47
2022-11-28T23:49:27.966Z,99698.50
2022-11-28T23:51:55.320Z,99698.06
2022-11-28T23:54:22.424Z,99696.69
2022-11-28T23:56:49.576Z,99686.44
2022-11-28T23:59:17.051Z,99686.56
